createdAt,value
2018-05-07T00:00:19.286Z,86.60
2018-05-07T00:02:46.736Z,86.50
2018-05-07T00:05:14.188Z,86.30
2018-05-07T00:07:41.600Z,85.60
2018-05-07T00:10:09.060Z,85.60
2018-05-07T00:12:36.489Z,85.50
2018-05-07T00:15:03.927Z,85.50
2018-05-07T00:17:31.359Z,86.80
2018-05-07T00:19:58.799Z,86.20
2018-05-07T00:22:26.997Z,86.90
2018-05-07T00:24:54.430Z,86.80
2018-05-07T00:27:22.633Z,86.60
2018-05-07T00:29:50.081Z,86.60
2018-05-07T00:32:17.520Z,87.90
2018-05-07T00:34:45.740Z,87.10
2018-05-07T00:37:13.159Z,87.10
2018-05-07T00:39:41.367Z,88.10
2018-05-07T00:42:08.800Z,88.00
2018-05-07T00:44:36.991Z,88.10
2018-05-07T00:47:04.423Z,88.10
2018-05-07T00:49:32.624Z,89.20
2018-05-07T00:52:00.088Z,88.30
2018-05-07T00:54:28.278Z,88.40
2018-05-07T00:56:55.707Z,88.50
2018-05-07T00:59:23.143Z,88.00
2018-05-07T01:01:51.336Z,88.40
2018-05-07T01:04:18.779Z,88.30
2018-05-07T01:06:46.980Z,88.70
2018-05-07T01:09:14.415Z,88.70
2018-05-07T01:11:41.849Z,89.80
2018-05-07T01:14:09.283Z,90.00
2018-05-07T01:16:36.708Z,90.10
2018-05-07T01:19:04.169Z,89.70
2018-05-07T01:21:31.580Z,90.00
2018-05-07T01:23:59.028Z,90.40
2018-05-07T01:26:26.478Z,90.70
2018-05-07T01:28:53.897Z,90.70
2018-05-07T01:31:21.330Z,90.80
2018-05-07T01:33:48.763Z,90.90
2018-05-07T01:36:16.204Z,90.80
2018-05-07T01:38:43.626Z,90.80
2018-05-07T01:41:11.059Z,90.80
2018-05-07T01:43:38.497Z,90.90
2018-05-07T01:46:05.925Z,90.80
2018-05-07T01:48:33.370Z,90.90
2018-05-07T01:51:00.807Z,90.80
2018-05-07T01:53:28.253Z,90.90
2018-05-07T01:55:55.693Z,90.90
2018-05-07T01:58:23.991Z,90.90
2018-05-07T02:00:51.423Z,90.80
2018-05-07T02:03:19.619Z,90.80
2018-05-07T02:05:47.069Z,90.80
2018-05-07T02:08:15.272Z,90.70
2018-05-07T02:10:43.391Z,90.70
2018-05-07T02:13:10.835Z,90.50
2018-05-07T02:15:38.258Z,91.00
2018-05-07T02:18:05.696Z,90.80
2018-05-07T02:20:33.137Z,90.90
2018-05-07T02:23:01.370Z,90.90
2018-05-07T02:25:28.794Z,90.90
2018-05-07T02:27:56.216Z,90.90
2018-05-07T02:30:24.420Z,90.90
2018-05-07T02:32:51.848Z,90.90
2018-05-07T02:35:20.067Z,91.00
2018-05-07T02:37:47.501Z,90.90
2018-05-07T02:40:15.702Z,91.40
2018-05-07T02:42:43.359Z,91.40
2018-05-07T02:45:10.791Z,91.30
2018-05-07T02:47:38.998Z,91.10
2018-05-07T02:50:06.461Z,91.10
2018-05-07T02:52:33.910Z,91.10
2018-05-07T02:55:01.344Z,91.10
2018-05-07T02:57:29.527Z,91.20
2018-05-07T02:59:56.963Z,91.10
2018-05-07T03:02:25.213Z,91.40
2018-05-07T03:04:52.599Z,91.00
2018-05-07T03:07:20.796Z,91.00
2018-05-07T03:09:48.235Z,90.90
2018-05-07T03:12:16.491Z,90.80
2018-05-07T03:14:43.851Z,90.70
2018-05-07T03:17:12.200Z,90.70
2018-05-07T03:19:39.614Z,90.90
2018-05-07T03:22:07.047Z,90.50
2018-05-07T03:24:35.248Z,91.20
2018-05-07T03:27:02.693Z,91.20
2018-05-07T03:29:30.879Z,91.10
2018-05-07T03:31:59.016Z,91.10
2018-05-07T03:34:27.271Z,91.80
2018-05-07T03:36:55.481Z,91.40
2018-05-07T03:39:22.903Z,91.40
2018-05-07T03:41:50.355Z,91.50
2018-05-07T03:44:17.808Z,91.60
2018-05-07T03:46:45.255Z,91.40
2018-05-07T03:49:12.682Z,91.40
2018-05-07T03:51:40.883Z,91.90
2018-05-07T03:54:08.315Z,91.90
2018-05-07T03:56:35.746Z,91.60
2018-05-07T03:59:03.943Z,91.60
2018-05-07T04:01:32.149Z,91.70
2018-05-07T04:03:59.571Z,91.70
2018-05-07T04:06:27.767Z,92.10
2018-05-07T04:08:55.202Z,92.10
2018-05-07T04:11:23.417Z,92.20
2018-05-07T04:13:50.845Z,92.20
2018-05-07T04:16:30.164Z,92.40
2018-05-07T04:19:10.176Z,92.20
2018-05-07T04:21:37.660Z,92.20
2018-05-07T04:24:06.895Z,92.10
2018-05-07T04:26:34.347Z,92.00
2018-05-07T04:29:02.534Z,92.20
2018-05-07T04:31:29.973Z,92.20
2018-05-07T04:33:58.181Z,92.10
2018-05-07T04:36:25.608Z,92.10
2018-05-07T04:38:53.795Z,92.00
2018-05-07T04:41:21.236Z,92.00
2018-05-07T04:43:49.431Z,91.70
2018-05-07T04:46:16.882Z,91.70
2018-05-07T04:48:44.350Z,91.90
2018-05-07T04:51:11.737Z,91.90
2018-05-07T04:53:39.197Z,91.80
2018-05-07T04:56:06.631Z,91.80
2018-05-07T04:58:34.059Z,91.80
2018-05-07T05:01:01.500Z,91.80
2018-05-07T05:03:29.708Z,91.40
2018-05-07T05:05:57.151Z,91.40
2018-05-07T05:08:24.633Z,91.30
2018-05-07T05:10:52.051Z,91.40
2018-05-07T05:13:20.255Z,91.50
2018-05-07T05:15:47.688Z,90.80
2018-05-07T05:18:15.915Z,90.60
2018-05-07T05:20:43.711Z,90.60
2018-05-07T05:23:11.181Z,90.50
2018-05-07T05:25:38.598Z,90.00
2018-05-07T05:28:06.070Z,89.80
2018-05-07T05:30:34.251Z,89.10
2018-05-07T05:33:01.688Z,89.00
2018-05-07T05:35:29.128Z,88.60
2018-05-07T05:37:56.554Z,88.90
2018-05-07T05:40:24.754Z,88.60
2018-05-07T05:42:52.184Z,88.50
2018-05-07T05:45:20.390Z,88.30
2018-05-07T05:47:47.815Z,88.30
2018-05-07T05:50:16.108Z,87.30
2018-05-07T05:52:43.816Z,87.20
2018-05-07T05:55:11.235Z,87.90
2018-05-07T05:57:38.667Z,87.10
2018-05-07T06:00:06.859Z,86.90
2018-05-07T06:02:34.290Z,86.90
2018-05-07T06:05:02.532Z,86.40
2018-05-07T06:07:29.975Z,86.30
2018-05-07T06:09:57.420Z,86.20
2018-05-07T06:12:25.132Z,85.60
2018-05-07T06:14:52.710Z,86.10
2018-05-07T06:17:19.988Z,85.00
2018-05-07T06:19:47.415Z,85.20
2018-05-07T06:22:15.619Z,83.70
2018-05-07T06:24:43.827Z,83.50
2018-05-07T06:27:12.062Z,83.20
2018-05-07T06:29:39.461Z,83.20
2018-05-07T06:32:06.891Z,82.40
2018-05-07T06:34:34.378Z,79.10
2018-05-07T06:37:01.799Z,73.50
2018-05-07T06:39:29.234Z,64.70
2018-05-07T06:41:57.435Z,51.10
2018-05-07T06:44:24.866Z,51.00
2018-05-07T06:46:53.063Z,42.40
2018-05-07T06:49:20.499Z,42.40
2018-05-07T06:51:48.701Z,38.50
2018-05-07T06:54:16.135Z,38.50
2018-05-07T06:56:43.960Z,36.80
2018-05-07T06:59:11.395Z,36.00
2018-05-07T07:01:38.820Z,33.80
2018-05-07T07:04:07.559Z,32.10
2018-05-07T07:06:34.969Z,32.10
2018-05-07T07:09:03.165Z,30.80
2018-05-07T07:11:30.587Z,30.80
2018-05-07T07:13:58.787Z,30.10
2018-05-07T07:16:26.246Z,30.00
2018-05-07T07:18:54.415Z,30.40
2018-05-07T07:21:21.843Z,30.30
2018-05-07T07:23:49.275Z,30.50
2018-05-07T07:26:16.704Z,31.00
2018-05-07T07:28:44.148Z,31.60
2018-05-07T07:31:11.584Z,32.60
2018-05-07T07:33:39.034Z,32.90
2018-05-07T07:36:06.451Z,32.90
2018-05-07T07:38:33.889Z,32.00
2018-05-07T07:41:01.319Z,31.70
2018-05-07T07:43:29.520Z,31.40
2018-05-07T07:45:56.935Z,31.30
2018-05-07T07:48:25.139Z,31.20
2018-05-07T07:50:52.574Z,31.00
2018-05-07T07:53:20.780Z,29.70
2018-05-07T07:55:48.203Z,29.60
2018-05-07T07:58:16.407Z,28.30
2018-05-07T08:00:44.881Z,28.80
2018-05-07T08:03:12.315Z,28.60
2018-05-07T08:05:40.512Z,28.70
2018-05-07T08:08:07.951Z,28.70
2018-05-07T08:10:36.147Z,27.90
2018-05-07T08:13:03.575Z,27.90
2018-05-07T08:15:31.007Z,28.10
2018-05-07T08:20:48.958Z,28.10
2018-05-07T08:23:17.163Z,26.00
2018-05-07T08:25:45.352Z,26.10
2018-05-07T08:28:13.565Z,25.90
2018-05-07T08:30:40.987Z,25.90
2018-05-07T08:33:09.193Z,27.10
2018-05-07T08:35:36.616Z,27.10
2018-05-07T08:38:04.818Z,27.30
2018-05-07T08:40:32.234Z,27.30
2018-05-07T08:43:00.442Z,27.20
2018-05-07T08:45:27.875Z,27.20
2018-05-07T08:47:56.067Z,27.20
2018-05-07T08:50:23.504Z,27.20
2018-05-07T08:52:52.709Z,27.10
2018-05-07T08:55:20.127Z,27.00
2018-05-07T08:57:47.571Z,27.10
2018-05-07T09:00:15.026Z,27.00
2018-05-07T09:02:42.456Z,27.00
2018-05-07T09:05:09.888Z,26.50
2018-05-07T09:07:38.087Z,26.10
2018-05-07T09:10:05.532Z,26.00
2018-05-07T09:12:33.733Z,26.80
2018-05-07T09:15:01.944Z,26.10
2018-05-07T09:17:29.383Z,26.50
2018-05-07T09:19:56.827Z,26.40
2018-05-07T09:22:24.248Z,26.10
2018-05-07T09:24:52.491Z,26.00
2018-05-07T09:27:19.889Z,26.00
2018-05-07T09:29:48.103Z,25.80
2018-05-07T09:32:15.515Z,25.80
2018-05-07T09:34:44.646Z,25.40
2018-05-07T09:37:13.014Z,25.40
2018-05-07T09:39:40.450Z,25.40
2018-05-07T09:42:08.656Z,24.80
2018-05-07T09:44:36.101Z,24.70
2018-05-07T09:47:03.545Z,24.20
2018-05-07T09:49:31.747Z,23.80
2018-05-07T09:51:59.174Z,23.70
2018-05-07T09:54:27.410Z,24.80
2018-05-07T09:56:54.954Z,24.70
2018-05-07T09:59:22.274Z,24.70
2018-05-07T10:01:49.716Z,24.60
2018-05-07T10:04:17.916Z,25.20
2018-05-07T10:06:45.344Z,25.70
2018-05-07T10:09:13.546Z,24.30
2018-05-07T10:11:40.987Z,24.30
2018-05-07T10:14:09.203Z,24.70
2018-05-07T10:16:36.628Z,24.70
2018-05-07T10:19:04.067Z,23.60
2018-05-07T10:21:32.271Z,22.20
2018-05-07T10:23:59.727Z,22.20
2018-05-07T10:26:27.149Z,23.10
2018-05-07T10:28:54.567Z,22.10
2018-05-07T10:31:22.012Z,23.10
2018-05-07T10:33:50.043Z,22.40
2018-05-07T10:36:18.246Z,22.60
2018-05-07T10:38:45.679Z,22.50
2018-05-07T10:41:13.875Z,21.70
2018-05-07T10:43:41.303Z,21.70
2018-05-07T10:46:09.503Z,22.00
2018-05-07T10:48:36.933Z,22.00
2018-05-07T10:51:05.171Z,22.40
2018-05-07T10:53:32.599Z,22.20
2018-05-07T10:56:00.364Z,21.20
2018-05-07T10:58:27.800Z,22.50
2018-05-07T11:00:55.987Z,21.90
2018-05-07T11:03:23.429Z,21.70
2018-05-07T11:05:51.626Z,23.00
2018-05-07T11:08:19.072Z,22.90
2018-05-07T11:10:47.313Z,23.40
2018-05-07T11:13:14.739Z,23.40
2018-05-07T11:15:42.179Z,22.40
2018-05-07T11:18:09.612Z,21.50
2018-05-07T11:20:37.811Z,24.30
2018-05-07T11:23:05.243Z,24.30
2018-05-07T11:25:33.434Z,23.60
2018-05-07T11:28:00.863Z,23.60
2018-05-07T11:30:29.085Z,25.20
2018-05-07T11:32:56.505Z,25.20
2018-05-07T11:35:24.702Z,26.60
2018-05-07T11:37:52.137Z,26.60
2018-05-07T11:40:20.340Z,25.80
2018-05-07T11:42:47.882Z,25.80
2018-05-07T11:45:15.389Z,26.40
2018-05-07T11:47:43.005Z,27.30
2018-05-07T11:50:10.505Z,26.60
2018-05-07T11:52:37.936Z,27.90
2018-05-07T11:55:05.387Z,26.90
2018-05-07T11:57:32.965Z,27.00
2018-05-07T12:00:00.788Z,27.70
2018-05-07T12:02:28.347Z,27.00
2018-05-07T12:04:55.776Z,27.10
2018-05-07T12:07:23.230Z,27.30
2018-05-07T12:09:50.669Z,25.70
2018-05-07T12:12:18.108Z,26.20
2018-05-07T12:14:45.576Z,27.40
2018-05-07T12:17:12.997Z,27.50
2018-05-07T12:19:41.183Z,27.40
2018-05-07T12:22:08.623Z,27.40
2018-05-07T12:24:36.810Z,26.30
2018-05-07T12:27:05.019Z,27.10
2018-05-07T12:29:32.497Z,27.10
2018-05-07T12:31:59.936Z,26.10
2018-05-07T12:34:27.407Z,26.90
2018-05-07T12:36:54.866Z,26.70
2018-05-07T12:39:22.322Z,27.70
2018-05-07T12:41:49.743Z,26.60
2018-05-07T12:44:17.226Z,26.00
2018-05-07T12:46:44.754Z,26.50
2018-05-07T12:49:12.115Z,26.40
2018-05-07T12:51:39.551Z,26.50
2018-05-07T12:54:07.756Z,26.50
2018-05-07T12:56:35.211Z,26.50
2018-05-07T12:59:02.734Z,26.30
2018-05-07T13:01:30.145Z,26.50
2018-05-07T13:03:57.583Z,26.10
2018-05-07T13:06:25.024Z,26.20
2018-05-07T13:08:53.231Z,26.50
2018-05-07T13:11:20.679Z,26.50
2018-05-07T13:13:48.118Z,26.50
2018-05-07T13:16:16.323Z,26.70
2018-05-07T13:18:44.698Z,26.70
2018-05-07T13:21:12.170Z,27.00
2018-05-07T13:23:39.598Z,27.10
2018-05-07T13:26:07.034Z,26.70
2018-05-07T13:28:35.241Z,26.90
2018-05-07T13:31:02.680Z,26.90
2018-05-07T13:33:30.872Z,27.30
2018-05-07T13:35:58.303Z,27.30
2018-05-07T13:38:26.495Z,26.80
2018-05-07T13:40:53.954Z,26.80
2018-05-07T13:43:22.126Z,26.90
2018-05-07T13:45:49.561Z,26.90
2018-05-07T13:48:17.756Z,26.80
2018-05-07T13:50:45.191Z,26.70
2018-05-07T13:53:13.423Z,26.10
2018-05-07T13:55:40.836Z,26.10
2018-05-07T13:58:09.028Z,27.20
2018-05-07T14:00:36.466Z,27.20
2018-05-07T14:03:04.669Z,26.60
2018-05-07T14:05:32.095Z,26.60
2018-05-07T14:08:00.309Z,25.70
2018-05-07T14:10:27.739Z,25.70
2018-05-07T14:12:55.336Z,26.50
2018-05-07T14:15:23.663Z,26.70
2018-05-07T14:17:51.943Z,27.00
2018-05-07T14:20:20.143Z,25.50
2018-05-07T14:22:47.570Z,25.50
2018-05-07T14:25:15.759Z,26.50
2018-05-07T14:27:43.194Z,26.50
2018-05-07T14:30:10.628Z,25.50
2018-05-07T14:32:38.067Z,25.30
2018-05-07T14:35:05.490Z,26.30
2018-05-07T14:37:32.920Z,26.10
2018-05-07T14:40:00.351Z,26.10
2018-05-07T14:42:27.789Z,26.90
2018-05-07T14:44:55.219Z,26.80
2018-05-07T14:47:22.659Z,26.60
2018-05-07T14:49:50.099Z,26.40
2018-05-07T14:52:17.540Z,27.70
2018-05-07T14:54:44.976Z,27.50
2018-05-07T14:57:12.457Z,27.90
2018-05-07T14:59:39.879Z,27.30
2018-05-07T15:02:07.369Z,26.40
2018-05-07T15:04:34.797Z,26.50
2018-05-07T15:07:02.241Z,27.50
2018-05-07T15:09:29.683Z,28.10
2018-05-07T15:11:58.688Z,26.40
2018-05-07T15:14:26.908Z,27.00
2018-05-07T15:16:54.341Z,26.90
2018-05-07T15:19:21.777Z,27.80
2018-05-07T15:21:49.220Z,27.90
2018-05-07T15:24:18.230Z,27.20
2018-05-07T15:26:45.720Z,27.20
2018-05-07T15:29:13.244Z,28.20
2018-05-07T15:31:40.586Z,27.40
2018-05-07T15:34:08.788Z,28.00
2018-05-07T15:36:36.239Z,28.00
2018-05-07T15:39:04.434Z,27.70
2018-05-07T15:41:31.863Z,28.10
2018-05-07T15:44:00.073Z,28.10
2018-05-07T15:46:27.539Z,28.10
2018-05-07T15:48:54.967Z,27.80
2018-05-07T15:51:22.403Z,27.90
2018-05-07T15:53:50.682Z,28.10
2018-05-07T15:56:18.119Z,28.10
2018-05-07T15:58:45.527Z,28.00
2018-05-07T16:01:12.951Z,27.50
2018-05-07T16:03:41.180Z,29.10
2018-05-07T16:06:08.610Z,29.00
2018-05-07T16:08:36.037Z,28.70
2018-05-07T16:11:04.233Z,29.00
2018-05-07T16:13:31.670Z,29.00
2018-05-07T16:15:59.861Z,28.80
2018-05-07T16:18:27.378Z,28.80
2018-05-07T16:20:54.887Z,29.60
2018-05-07T16:23:23.164Z,28.80
2018-05-07T16:25:50.415Z,28.80
2018-05-07T16:28:18.691Z,29.60
2018-05-07T16:30:46.036Z,29.50
2018-05-07T16:33:14.237Z,29.90
2018-05-07T16:35:41.798Z,29.90
2018-05-07T16:38:09.153Z,30.20
2018-05-07T16:40:36.627Z,29.80
2018-05-07T16:43:04.072Z,30.00
2018-05-07T16:45:31.490Z,31.20
2018-05-07T16:47:59.687Z,29.90
2018-05-07T16:50:27.125Z,29.90
2018-05-07T16:52:55.540Z,30.00
2018-05-07T16:55:22.971Z,30.00
2018-05-07T16:57:50.498Z,30.70
2018-05-07T17:00:18.747Z,30.20
2018-05-07T17:02:46.176Z,30.50
2018-05-07T17:05:13.606Z,30.10
2018-05-07T17:07:41.795Z,31.40
2018-05-07T17:10:09.232Z,31.40
2018-05-07T17:12:36.663Z,31.60
2018-05-07T17:15:04.125Z,30.50
2018-05-07T17:17:31.553Z,31.30
2018-05-07T17:19:58.986Z,31.40
2018-05-07T17:22:26.411Z,31.40
2018-05-07T17:24:53.858Z,31.70
2018-05-07T17:27:21.296Z,32.40
2018-05-07T17:29:49.549Z,32.50
2018-05-07T17:32:17.022Z,33.00
2018-05-07T17:34:45.215Z,33.30
2018-05-07T17:37:12.648Z,33.20
2018-05-07T17:39:40.089Z,33.30
2018-05-07T17:42:07.514Z,33.90
2018-05-07T17:44:46.807Z,33.80
2018-05-07T17:47:26.348Z,34.40
2018-05-07T17:49:53.794Z,34.40
2018-05-07T17:52:21.216Z,34.60
2018-05-07T17:54:49.416Z,34.80
2018-05-07T17:57:16.852Z,34.80
2018-05-07T17:59:46.010Z,35.00
2018-05-07T18:02:13.437Z,35.00
2018-05-07T18:04:40.912Z,35.90
2018-05-07T18:07:08.372Z,35.50
2018-05-07T18:09:35.815Z,35.20
2018-05-07T18:12:03.232Z,35.60
2018-05-07T18:14:31.510Z,36.40
2018-05-07T18:16:58.931Z,36.40
2018-05-07T18:19:26.368Z,35.80
2018-05-07T18:21:53.794Z,35.70
2018-05-07T18:24:21.252Z,36.30
2018-05-07T18:26:49.447Z,36.60
2018-05-07T18:29:16.915Z,36.60
2018-05-07T18:31:45.299Z,36.60
2018-05-07T18:34:12.715Z,37.20
2018-05-07T18:36:40.159Z,37.10
2018-05-07T18:39:08.390Z,38.50
2018-05-07T18:41:36.332Z,38.50
2018-05-07T18:44:03.775Z,38.30
2018-05-07T18:46:32.019Z,37.90
2018-05-07T18:48:59.452Z,37.80
2018-05-07T18:51:26.897Z,39.40
2018-05-07T18:53:54.359Z,38.30
2018-05-07T18:56:21.791Z,38.50
2018-05-07T18:58:49.220Z,39.60
2018-05-07T19:01:16.659Z,38.30
2018-05-07T19:03:44.116Z,38.50
2018-05-07T19:06:11.540Z,38.40
2018-05-07T19:08:38.971Z,39.70
2018-05-07T19:11:06.410Z,39.30
2018-05-07T19:13:34.621Z,40.40
2018-05-07T19:16:02.057Z,40.40
2018-05-07T19:18:30.274Z,39.20
2018-05-07T19:20:57.710Z,39.30
2018-05-07T19:23:25.130Z,39.40
2018-05-07T19:25:53.329Z,42.30
2018-05-07T19:28:20.760Z,41.90
2018-05-07T19:30:48.224Z,41.80
2018-05-07T19:33:15.632Z,42.00
2018-05-07T19:35:43.062Z,40.60
2018-05-07T19:38:10.554Z,40.50
2018-05-07T19:40:37.991Z,40.90
2018-05-07T19:43:05.430Z,41.70
2018-05-07T19:45:32.858Z,41.50
2018-05-07T19:48:00.308Z,42.60
2018-05-07T19:50:27.732Z,41.60
2018-05-07T19:52:55.326Z,41.70
2018-05-07T19:55:22.763Z,41.80
2018-05-07T19:57:50.188Z,42.30
2018-05-07T20:00:17.667Z,41.80
2018-05-07T20:02:45.506Z,41.90
2018-05-07T20:05:12.932Z,42.70
2018-05-07T20:07:41.195Z,41.90
2018-05-07T20:10:08.615Z,41.90
2018-05-07T20:12:36.101Z,42.00
2018-05-07T20:15:03.483Z,42.10
2018-05-07T20:17:31.671Z,42.20
2018-05-07T20:19:59.996Z,42.10
2018-05-07T20:22:27.414Z,42.10
2018-05-07T20:24:54.855Z,43.40
2018-05-07T20:27:23.054Z,42.80
2018-05-07T20:29:50.488Z,42.80
2018-05-07T20:32:18.688Z,43.00
2018-05-07T20:34:46.144Z,43.00
2018-05-07T20:37:14.323Z,43.70
2018-05-07T20:39:41.791Z,43.70
2018-05-07T20:42:09.222Z,43.70
2018-05-07T20:44:36.718Z,44.20
2018-05-07T20:47:04.153Z,44.80
2018-05-07T20:49:31.581Z,44.40
2018-05-07T20:51:59.781Z,44.90
2018-05-07T20:54:27.208Z,44.90
2018-05-07T20:56:55.436Z,44.30
2018-05-07T20:59:22.882Z,44.20
2018-05-07T21:01:50.297Z,44.50
2018-05-07T21:04:17.729Z,44.40
2018-05-07T21:06:45.706Z,43.90
2018-05-07T21:09:13.124Z,43.80
2018-05-07T21:11:40.568Z,43.60
2018-05-07T21:14:07.988Z,43.80
2018-05-07T21:16:35.419Z,43.90
2018-05-07T21:19:02.867Z,44.10
2018-05-07T21:21:30.297Z,45.00
2018-05-07T21:23:57.727Z,44.70
2018-05-07T21:26:25.927Z,45.70
2018-05-07T21:28:53.355Z,45.00
2018-05-07T21:31:20.800Z,46.20
2018-05-07T21:33:48.231Z,46.80
2018-05-07T21:36:15.680Z,47.20
2018-05-07T21:38:43.111Z,46.90
2018-05-07T21:41:10.543Z,48.00
2018-05-07T21:43:38.015Z,48.10
2018-05-07T21:46:05.401Z,48.40
2018-05-07T21:48:32.829Z,48.00
2018-05-07T21:51:01.047Z,47.90
2018-05-07T21:53:28.547Z,47.90
2018-05-07T21:55:55.974Z,48.50
2018-05-07T21:58:23.423Z,48.40
2018-05-07T22:00:50.863Z,48.70
2018-05-07T22:03:18.283Z,48.20
2018-05-07T22:05:45.887Z,48.90
2018-05-07T22:08:13.406Z,48.50
2018-05-07T22:10:41.676Z,48.80
2018-05-07T22:13:09.182Z,48.70
2018-05-07T22:15:36.693Z,49.40
2018-05-07T22:18:04.067Z,49.10
2018-05-07T22:20:31.513Z,49.30
2018-05-07T22:22:59.735Z,49.50
2018-05-07T22:25:27.164Z,49.50
2018-05-07T22:27:54.651Z,50.60
2018-05-07T22:30:22.103Z,50.00
2018-05-07T22:32:49.563Z,50.60
2018-05-07T22:35:16.998Z,51.00
2018-05-07T22:37:44.431Z,51.10
2018-05-07T22:40:12.623Z,52.20
2018-05-07T22:42:40.064Z,52.20
2018-05-07T22:45:13.724Z,52.40
2018-05-07T22:47:41.274Z,52.40
2018-05-07T22:50:08.748Z,52.40
2018-05-07T22:52:36.176Z,52.30
2018-05-07T22:55:23.079Z,52.70
2018-05-07T22:57:50.572Z,52.80
2018-05-07T23:00:18.014Z,53.20
2018-05-07T23:02:49.414Z,53.80
2018-05-07T23:05:17.637Z,54.40
2018-05-07T23:07:46.018Z,54.40
2018-05-07T23:10:13.519Z,54.40
2018-05-07T23:12:40.967Z,55.10
2018-05-07T23:15:08.444Z,55.70
2018-05-07T23:17:35.902Z,55.10
2018-05-07T23:20:03.320Z,55.60
2018-05-07T23:22:30.783Z,55.90
2018-05-07T23:24:58.218Z,56.00
2018-05-07T23:27:25.705Z,56.30
2018-05-07T23:29:53.144Z,58.20
2018-05-07T23:32:21.583Z,58.30
2018-05-07T23:34:49.813Z,59.10
2018-05-07T23:37:17.254Z,59.10
2018-05-07T23:39:44.691Z,59.80
2018-05-07T23:42:12.116Z,60.50
2018-05-07T23:44:40.320Z,60.30
2018-05-07T23:47:07.754Z,60.20
2018-05-07T23:49:35.964Z,65.50
2018-05-07T23:52:03.398Z,65.40
2018-05-07T23:54:31.607Z,65.10
2018-05-07T23:56:59.077Z,65.10
2018-05-07T23:59:26.524Z,66.80
